Airport View

Enter AWOS ICAO identifier for current METAR.

ex. KFNL

KOKV 080450Z AUTO 00000KT 10SM CLR 21/20 A3001 RMK AO2

8 Jul 2020 04:51

Frequency: 124.85

Phone: 540-662-6970

Other Area AWOS: KFRR - KMRB - KJYO - KLUA

TAF AMD KMRB 080003Z 0800/0824 21004KT P6SM VCTS SCT030CB BKN060 FM080200 VRB03KT P6SM BKN045 FM080800 VRB03KT 3SM BR SCT120 BKN250 FM081200 17004KT P6SM FEW120 SCT250 FM081700 16005KT P6SM SCT045